sensor_id;sensor_type;location;lat;lon;timestamp;P1;durP1;ratioP1;P2;durP2;ratioP2
70635;SDS011;58206;47.310;19.502;2022-10-16T00:01:52;0.20;;;0.00;;
70635;SDS011;58206;47.310;19.502;2022-10-16T00:04:38;0.30;;;0.00;;
70635;SDS011;58206;47.310;19.502;2022-10-16T00:07:24;0.20;;;0.00;;
70635;SDS011;58206;47.310;19.502;2022-10-16T00:10:10;0.20;;;0.00;;
70635;SDS011;58206;47.310;19.502;2022-10-16T00:12:55;0.30;;;0.00;;
70635;SDS011;58206;47.310;19.502;2022-10-16T00:15:40;0.30;;;0.00;;
70635;SDS011;58206;47.310;19.502;2022-10-16T00:18:27;0.20;;;0.00;;
70635;SDS011;58206;47.310;19.502;2022-10-16T00:21:16;0.28;;;0.00;;
70635;SDS011;58206;47.310;19.502;2022-10-16T00:24:03;0.30;;;0.00;;
70635;SDS011;58206;47.310;19.502;2022-10-16T00:26:50;0.30;;;0.00;;
70635;SDS011;58206;47.310;19.502;2022-10-16T00:29:35;0.20;;;0.00;;
70635;SDS011;58206;47.310;19.502;2022-10-16T00:32:20;0.20;;;0.00;;
70635;SDS011;58206;47.310;19.502;2022-10-16T00:35:05;0.20;;;0.00;;
70635;SDS011;58206;47.310;19.502;2022-10-16T00:37:50;0.20;;;0.00;;
70635;SDS011;58206;47.310;19.502;2022-10-16T00:40:35;0.20;;;0.00;;
70635;SDS011;58206;47.310;19.502;2022-10-16T00:46:33;0.20;;;0.00;;
70635;SDS011;58206;47.310;19.502;2022-10-16T00:49:21;0.30;;;0.00;;
70635;SDS011;58206;47.310;19.502;2022-10-16T00:52:08;0.30;;;0.00;;
70635;SDS011;58206;47.310;19.502;2022-10-16T00:54:55;0.20;;;0.00;;
70635;SDS011;58206;47.310;19.502;2022-10-16T00:57:40;0.28;;;0.00;;
70635;SDS011;58206;47.310;19.502;2022-10-16T01:00:27;0.30;;;0.00;;
70635;SDS011;58206;47.310;19.502;2022-10-16T01:03:31;0.30;;;0.00;;
70635;SDS011;58206;47.310;19.502;2022-10-16T01:06:29;0.30;;;0.00;;
70635;SDS011;58206;47.310;19.502;2022-10-16T01:09:29;0.30;;;0.00;;
70635;SDS011;58206;47.310;19.502;2022-10-16T01:12:23;0.20;;;0.00;;
70635;SDS011;58206;47.310;19.502;2022-10-16T01:21:13;0.22;;;0.00;;
70635;SDS011;58206;47.310;19.502;2022-10-16T01:30:17;0.20;;;0.00;;
70635;SDS011;58206;47.310;19.502;2022-10-16T01:35:58;0.20;;;0.00;;
70635;SDS011;58206;47.310;19.502;2022-10-16T01:38:46;0.30;;;0.00;;
70635;SDS011;58206;47.310;19.502;2022-10-16T01:41:32;0.20;;;0.00;;
70635;SDS011;58206;47.310;19.502;2022-10-16T01:44:19;0.20;;;0.00;;
70635;SDS011;58206;47.310;19.502;2022-10-16T01:47:04;0.20;;;0.00;;
70635;SDS011;58206;47.310;19.502;2022-10-16T01:49:50;0.28;;;0.00;;
70635;SDS011;58206;47.310;19.502;2022-10-16T01:52:37;0.30;;;0.00;;
70635;SDS011;58206;47.310;19.502;2022-10-16T01:55:25;0.25;;;0.00;;
70635;SDS011;58206;47.310;19.502;2022-10-16T01:58:12;0.30;;;0.00;;
70635;SDS011;58206;47.310;19.502;2022-10-16T02:00:59;0.20;;;0.00;;
70635;SDS011;58206;47.310;19.502;2022-10-16T02:03:43;0.15;;;0.00;;
70635;SDS011;58206;47.310;19.502;2022-10-16T02:06:28;0.20;;;0.00;;
70635;SDS011;58206;47.310;19.502;2022-10-16T02:09:14;0.20;;;0.00;;
70635;SDS011;58206;47.310;19.502;2022-10-16T02:12:03;0.25;;;0.00;;
70635;SDS011;58206;47.310;19.502;2022-10-16T02:14:50;0.05;;;0.00;;
70635;SDS011;58206;47.310;19.502;2022-10-16T02:17:35;0.20;;;0.00;;
70635;SDS011;58206;47.310;19.502;2022-10-16T02:20:20;0.10;;;0.00;;
70635;SDS011;58206;47.310;19.502;2022-10-16T02:23:07;0.20;;;0.00;;
70635;SDS011;58206;47.310;19.502;2022-10-16T02:25:53;0.10;;;0.00;;
70635;SDS011;58206;47.310;19.502;2022-10-16T02:28:42;0.10;;;0.00;;
70635;SDS011;58206;47.310;19.502;2022-10-16T02:31:31;0.20;;;0.00;;
70635;SDS011;58206;47.310;19.502;2022-10-16T02:34:19;0.20;;;0.00;;
70635;SDS011;58206;47.310;19.502;2022-10-16T02:37:05;0.20;;;0.00;;
70635;SDS011;58206;47.310;19.502;2022-10-16T02:39:50;0.20;;;0.00;;
70635;SDS011;58206;47.310;19.502;2022-10-16T02:42:37;0.20;;;0.00;;
70635;SDS011;58206;47.310;19.502;2022-10-16T02:45:22;0.20;;;0.00;;
70635;SDS011;58206;47.310;19.502;2022-10-16T02:48:06;0.20;;;0.00;;
70635;SDS011;58206;47.310;19.502;2022-10-16T02:50:51;0.15;;;0.00;;
70635;SDS011;58206;47.310;19.502;2022-10-16T02:53:35;0.17;;;0.00;;
70635;SDS011;58206;47.310;19.502;2022-10-16T02:56:20;0.10;;;0.00;;
70635;SDS011;58206;47.310;19.502;2022-10-16T02:59:04;0.20;;;0.00;;
70635;SDS011;58206;47.310;19.502;2022-10-16T03:01:48;0.20;;;0.00;;
70635;SDS011;58206;47.310;19.502;2022-10-16T03:04:34;0.20;;;0.00;;
70635;SDS011;58206;47.310;19.502;2022-10-16T03:07:20;0.03;;;0.00;;
70635;SDS011;58206;47.310;19.502;2022-10-16T03:10:06;0.10;;;0.00;;
70635;SDS011;58206;47.310;19.502;2022-10-16T03:12:51;0.10;;;0.00;;
70635;SDS011;58206;47.310;19.502;2022-10-16T03:15:37;0.10;;;0.00;;
70635;SDS011;58206;47.310;19.502;2022-10-16T03:18:22;0.20;;;0.00;;
70635;SDS011;58206;47.310;19.502;2022-10-16T03:21:11;0.10;;;0.00;;
70635;SDS011;58206;47.310;19.502;2022-10-16T03:23:55;0.00;;;0.00;;
70635;SDS011;58206;47.310;19.502;2022-10-16T03:26:40;0.10;;;0.00;;
70635;SDS011;58206;47.310;19.502;2022-10-16T03:29:24;0.10;;;0.00;;
70635;SDS011;58206;47.310;19.502;2022-10-16T03:32:10;0.10;;;0.00;;
70635;SDS011;58206;47.310;19.502;2022-10-16T03:34:55;0.00;;;0.00;;
70635;SDS011;58206;47.310;19.502;2022-10-16T03:37:41;0.08;;;0.00;;
70635;SDS011;58206;47.310;19.502;2022-10-16T03:40:25;0.20;;;0.00;;
70635;SDS011;58206;47.310;19.502;2022-10-16T03:43:09;0.10;;;0.00;;
70635;SDS011;58206;47.310;19.502;2022-10-16T03:45:53;0.00;;;0.00;;
70635;SDS011;58206;47.310;19.502;2022-10-16T03:48:38;0.00;;;0.00;;
70635;SDS011;58206;47.310;19.502;2022-10-16T03:51:24;0.00;;;0.00;;
70635;SDS011;58206;47.310;19.502;2022-10-16T03:54:09;0.00;;;0.00;;
70635;SDS011;58206;47.310;19.502;2022-10-16T03:56:55;0.00;;;0.00;;
70635;SDS011;58206;47.310;19.502;2022-10-16T03:59:40;0.00;;;0.00;;
70635;SDS011;58206;47.310;19.502;2022-10-16T04:02:25;0.03;;;0.00;;
70635;SDS011;58206;47.310;19.502;2022-10-16T04:05:11;0.05;;;0.00;;
70635;SDS011;58206;47.310;19.502;2022-10-16T04:07:55;0.00;;;0.00;;
70635;SDS011;58206;47.310;19.502;2022-10-16T04:10:39;0.00;;;0.00;;
70635;SDS011;58206;47.310;19.502;2022-10-16T04:13:27;0.00;;;0.00;;
70635;SDS011;58206;47.310;19.502;2022-10-16T04:16:12;0.10;;;0.00;;
70635;SDS011;58206;47.310;19.502;2022-10-16T04:18:57;0.10;;;0.00;;
70635;SDS011;58206;47.310;19.502;2022-10-16T04:21:42;0.10;;;0.00;;
70635;SDS011;58206;47.310;19.502;2022-10-16T04:24:27;0.10;;;0.00;;
70635;SDS011;58206;47.310;19.502;2022-10-16T04:27:11;0.00;;;0.00;;
70635;SDS011;58206;47.310;19.502;2022-10-16T04:29:57;0.08;;;0.00;;
70635;SDS011;58206;47.310;19.502;2022-10-16T04:32:41;0.00;;;0.00;;
70635;SDS011;58206;47.310;19.502;2022-10-16T04:35:26;0.08;;;0.00;;
70635;SDS011;58206;47.310;19.502;2022-10-16T04:38:10;0.20;;;0.00;;
70635;SDS011;58206;47.310;19.502;2022-10-16T04:40:56;0.10;;;0.00;;
70635;SDS011;58206;47.310;19.502;2022-10-16T04:43:41;0.00;;;0.00;;
70635;SDS011;58206;47.310;19.502;2022-10-16T04:46:25;0.00;;;0.00;;
70635;SDS011;58206;47.310;19.502;2022-10-16T04:49:10;0.03;;;0.00;;
70635;SDS011;58206;47.310;19.502;2022-10-16T04:51:54;0.10;;;0.00;;
70635;SDS011;58206;47.310;19.502;2022-10-16T04:54:39;0.00;;;0.00;;
70635;SDS011;58206;47.310;19.502;2022-10-16T04:57:23;0.00;;;0.00;;
70635;SDS011;58206;47.310;19.502;2022-10-16T05:00:08;0.10;;;0.00;;
70635;SDS011;58206;47.310;19.502;2022-10-16T05:02:52;0.10;;;0.00;;
70635;SDS011;58206;47.310;19.502;2022-10-16T05:05:41;0.00;;;0.00;;
70635;SDS011;58206;47.310;19.502;2022-10-16T05:08:26;0.00;;;0.00;;
70635;SDS011;58206;47.310;19.502;2022-10-16T05:11:12;0.10;;;0.00;;
70635;SDS011;58206;47.310;19.502;2022-10-16T05:13:57;0.00;;;0.00;;
70635;SDS011;58206;47.310;19.502;2022-10-16T05:16:41;0.08;;;0.00;;
70635;SDS011;58206;47.310;19.502;2022-10-16T05:19:26;0.00;;;0.00;;
70635;SDS011;58206;47.310;19.502;2022-10-16T05:22:10;0.00;;;0.00;;
70635;SDS011;58206;47.310;19.502;2022-10-16T05:24:54;0.00;;;0.00;;
70635;SDS011;58206;47.310;19.502;2022-10-16T05:27:39;0.05;;;0.00;;
70635;SDS011;58206;47.310;19.502;2022-10-16T05:30:25;0.10;;;0.00;;
70635;SDS011;58206;47.310;19.502;2022-10-16T05:33:10;0.00;;;0.00;;
70635;SDS011;58206;47.310;19.502;2022-10-16T05:35:54;0.10;;;0.00;;
70635;SDS011;58206;47.310;19.502;2022-10-16T05:38:39;0.00;;;0.00;;
70635;SDS011;58206;47.310;19.502;2022-10-16T05:41:24;0.10;;;0.00;;
70635;SDS011;58206;47.310;19.502;2022-10-16T05:44:10;0.10;;;0.00;;
70635;SDS011;58206;47.310;19.502;2022-10-16T05:46:54;0.10;;;0.00;;
70635;SDS011;58206;47.310;19.502;2022-10-16T05:49:39;0.08;;;0.00;;
70635;SDS011;58206;47.310;19.502;2022-10-16T05:52:23;0.08;;;0.00;;
70635;SDS011;58206;47.310;19.502;2022-10-16T05:55:09;0.00;;;0.00;;
70635;SDS011;58206;47.310;19.502;2022-10-16T05:57:54;0.10;;;0.00;;
70635;SDS011;58206;47.310;19.502;2022-10-16T06:00:38;0.10;;;0.00;;
70635;SDS011;58206;47.310;19.502;2022-10-16T06:03:23;0.00;;;0.00;;
70635;SDS011;58206;47.310;19.502;2022-10-16T06:06:08;0.00;;;0.00;;
70635;SDS011;58206;47.310;19.502;2022-10-16T06:08:53;0.10;;;0.00;;
70635;SDS011;58206;47.310;19.502;2022-10-16T06:11:38;0.05;;;0.00;;
70635;SDS011;58206;47.310;19.502;2022-10-16T06:14:22;0.20;;;0.00;;
70635;SDS011;58206;47.310;19.502;2022-10-16T06:17:07;0.10;;;0.00;;
70635;SDS011;58206;47.310;19.502;2022-10-16T06:19:53;0.20;;;0.00;;
70635;SDS011;58206;47.310;19.502;2022-10-16T06:22:37;0.20;;;0.00;;
70635;SDS011;58206;47.310;19.502;2022-10-16T06:25:22;0.25;;;0.00;;
70635;SDS011;58206;47.310;19.502;2022-10-16T06:28:06;0.10;;;0.00;;
70635;SDS011;58206;47.310;19.502;2022-10-16T06:30:58;0.15;;;0.00;;
70635;SDS011;58206;47.310;19.502;2022-10-16T06:33:42;0.20;;;0.00;;
70635;SDS011;58206;47.310;19.502;2022-10-16T06:36:27;0.30;;;0.00;;
70635;SDS011;58206;47.310;19.502;2022-10-16T06:39:12;0.20;;;0.00;;
70635;SDS011;58206;47.310;19.502;2022-10-16T06:41:57;0.20;;;0.00;;
70635;SDS011;58206;47.310;19.502;2022-10-16T06:44:44;0.20;;;0.00;;
70635;SDS011;58206;47.310;19.502;2022-10-16T06:47:29;0.30;;;0.00;;
70635;SDS011;58206;47.310;19.502;2022-10-16T06:50:15;0.20;;;0.10;;
70635;SDS011;58206;47.310;19.502;2022-10-16T06:53:00;0.30;;;0.03;;
70635;SDS011;58206;47.310;19.502;2022-10-16T06:55:44;0.27;;;0.10;;
70635;SDS011;58206;47.310;19.502;2022-10-16T06:58:30;0.10;;;0.00;;
70635;SDS011;58206;47.310;19.502;2022-10-16T07:01:17;0.30;;;0.10;;
70635;SDS011;58206;47.310;19.502;2022-10-16T07:04:02;0.20;;;0.00;;
70635;SDS011;58206;47.310;19.502;2022-10-16T07:06:46;0.30;;;0.00;;
70635;SDS011;58206;47.310;19.502;2022-10-16T07:09:31;0.30;;;0.00;;
70635;SDS011;58206;47.310;19.502;2022-10-16T07:12:16;0.30;;;0.00;;
70635;SDS011;58206;47.310;19.502;2022-10-16T07:15:02;0.28;;;0.00;;
70635;SDS011;58206;47.310;19.502;2022-10-16T07:17:46;0.13;;;0.00;;
70635;SDS011;58206;47.310;19.502;2022-10-16T07:20:30;0.20;;;0.00;;
70635;SDS011;58206;47.310;19.502;2022-10-16T07:23:15;0.30;;;0.00;;
70635;SDS011;58206;47.310;19.502;2022-10-16T07:26:02;0.30;;;0.00;;
70635;SDS011;58206;47.310;19.502;2022-10-16T07:28:47;0.20;;;0.00;;
70635;SDS011;58206;47.310;19.502;2022-10-16T07:31:32;0.30;;;0.00;;
70635;SDS011;58206;47.310;19.502;2022-10-16T07:34:17;0.30;;;0.10;;
70635;SDS011;58206;47.310;19.502;2022-10-16T07:37:01;0.20;;;0.10;;
70635;SDS011;58206;47.310;19.502;2022-10-16T07:39:46;0.20;;;0.00;;
70635;SDS011;58206;47.310;19.502;2022-10-16T07:42:30;0.40;;;0.10;;
70635;SDS011;58206;47.310;19.502;2022-10-16T07:45:14;0.20;;;0.08;;
70635;SDS011;58206;47.310;19.502;2022-10-16T07:47:59;0.30;;;0.00;;
70635;SDS011;58206;47.310;19.502;2022-10-16T07:50:46;0.40;;;0.10;;
70635;SDS011;58206;47.310;19.502;2022-10-16T07:53:33;0.60;;;0.10;;
70635;SDS011;58206;47.310;19.502;2022-10-16T07:56:18;1.10;;;0.40;;
70635;SDS011;58206;47.310;19.502;2022-10-16T07:59:02;1.00;;;0.35;;
70635;SDS011;58206;47.310;19.502;2022-10-16T08:01:48;1.33;;;0.50;;
70635;SDS011;58206;47.310;19.502;2022-10-16T08:04:33;1.50;;;0.60;;
70635;SDS011;58206;47.310;19.502;2022-10-16T08:07:18;1.20;;;0.40;;
70635;SDS011;58206;47.310;19.502;2022-10-16T08:10:02;0.80;;;0.30;;
70635;SDS011;58206;47.310;19.502;2022-10-16T08:12:47;1.75;;;0.70;;
70635;SDS011;58206;47.310;19.502;2022-10-16T08:15:31;1.75;;;0.70;;
70635;SDS011;58206;47.310;19.502;2022-10-16T08:18:26;2.10;;;0.90;;
70635;SDS011;58206;47.310;19.502;2022-10-16T08:21:17;2.30;;;1.00;;
70635;SDS011;58206;47.310;19.502;2022-10-16T08:31:36;2.40;;;1.00;;
70635;SDS011;58206;47.310;19.502;2022-10-16T08:34:23;2.47;;;1.00;;
70635;SDS011;58206;47.310;19.502;2022-10-16T08:37:07;2.40;;;1.00;;
70635;SDS011;58206;47.310;19.502;2022-10-16T08:39:55;2.50;;;1.10;;
70635;SDS011;58206;47.310;19.502;2022-10-16T08:43:29;2.50;;;1.10;;
70635;SDS011;58206;47.310;19.502;2022-10-16T08:48:53;2.60;;;1.13;;
70635;SDS011;58206;47.310;19.502;2022-10-16T08:51:56;2.50;;;1.00;;
70635;SDS011;58206;47.310;19.502;2022-10-16T08:54:42;2.50;;;1.10;;
70635;SDS011;58206;47.310;19.502;2022-10-16T08:57:28;2.55;;;1.10;;
70635;SDS011;58206;47.310;19.502;2022-10-16T09:00:15;2.50;;;1.08;;
70635;SDS011;58206;47.310;19.502;2022-10-16T09:09:20;2.80;;;1.30;;
70635;SDS011;58206;47.310;19.502;2022-10-16T09:16:55;1.92;;;0.77;;
70635;SDS011;58206;47.310;19.502;2022-10-16T09:23:29;0.77;;;0.20;;
70635;SDS011;58206;47.310;19.502;2022-10-16T09:26:14;0.80;;;0.28;;
70635;SDS011;58206;47.310;19.502;2022-10-16T09:29:19;0.70;;;0.20;;
70635;SDS011;58206;47.310;19.502;2022-10-16T09:32:12;0.70;;;0.20;;
70635;SDS011;58206;47.310;19.502;2022-10-16T09:34:58;0.70;;;0.20;;
70635;SDS011;58206;47.310;19.502;2022-10-16T09:37:43;0.60;;;0.10;;
70635;SDS011;58206;47.310;19.502;2022-10-16T09:40:29;0.50;;;0.10;;
70635;SDS011;58206;47.310;19.502;2022-10-16T09:43:21;0.50;;;0.20;;
70635;SDS011;58206;47.310;19.502;2022-10-16T09:46:07;0.43;;;0.17;;
70635;SDS011;58206;47.310;19.502;2022-10-16T09:48:53;0.50;;;0.20;;
70635;SDS011;58206;47.310;19.502;2022-10-16T09:51:38;0.45;;;0.10;;
70635;SDS011;58206;47.310;19.502;2022-10-16T09:54:23;0.30;;;0.10;;
70635;SDS011;58206;47.310;19.502;2022-10-16T09:57:10;0.70;;;0.20;;
70635;SDS011;58206;47.310;19.502;2022-10-16T09:59:57;0.73;;;0.20;;
70635;SDS011;58206;47.310;19.502;2022-10-16T10:02:42;0.70;;;0.20;;
70635;SDS011;58206;47.310;19.502;2022-10-16T10:05:27;0.65;;;0.20;;
70635;SDS011;58206;47.310;19.502;2022-10-16T10:08:12;0.43;;;0.10;;
70635;SDS011;58206;47.310;19.502;2022-10-16T10:10:59;0.50;;;0.20;;
70635;SDS011;58206;47.310;19.502;2022-10-16T10:13:43;0.70;;;0.20;;
70635;SDS011;58206;47.310;19.502;2022-10-16T10:16:28;0.90;;;0.30;;
70635;SDS011;58206;47.310;19.502;2022-10-16T10:19:19;0.80;;;0.20;;
70635;SDS011;58206;47.310;19.502;2022-10-16T10:22:22;0.50;;;0.20;;
70635;SDS011;58206;47.310;19.502;2022-10-16T10:35:04;0.60;;;0.20;;
70635;SDS011;58206;47.310;19.502;2022-10-16T10:37:37;0.55;;;0.20;;
70635;SDS011;58206;47.310;19.502;2022-10-16T10:47:29;0.60;;;0.20;;
70635;SDS011;58206;47.310;19.502;2022-10-16T10:56:55;0.40;;;0.20;;
70635;SDS011;58206;47.310;19.502;2022-10-16T11:02:35;0.50;;;0.10;;
70635;SDS011;58206;47.310;19.502;2022-10-16T11:05:24;0.50;;;0.17;;
70635;SDS011;58206;47.310;19.502;2022-10-16T11:08:17;0.30;;;0.10;;
70635;SDS011;58206;47.310;19.502;2022-10-16T11:11:08;0.40;;;0.10;;
70635;SDS011;58206;47.310;19.502;2022-10-16T11:13:59;0.40;;;0.10;;
70635;SDS011;58206;47.310;19.502;2022-10-16T11:16:48;0.33;;;0.10;;
70635;SDS011;58206;47.310;19.502;2022-10-16T11:22:30;0.38;;;0.10;;
70635;SDS011;58206;47.310;19.502;2022-10-16T11:25:21;0.35;;;0.10;;
70635;SDS011;58206;47.310;19.502;2022-10-16T11:28:10;1.50;;;1.30;;
70635;SDS011;58206;47.310;19.502;2022-10-16T11:36:47;0.30;;;0.10;;
70635;SDS011;58206;47.310;19.502;2022-10-16T11:39:33;0.38;;;0.10;;
70635;SDS011;58206;47.310;19.502;2022-10-16T11:45:36;0.40;;;0.10;;
70635;SDS011;58206;47.310;19.502;2022-10-16T11:54:51;0.20;;;0.10;;
70635;SDS011;58206;47.310;19.502;2022-10-16T11:57:42;0.40;;;0.10;;
70635;SDS011;58206;47.310;19.502;2022-10-16T12:00:48;0.70;;;0.20;;
70635;SDS011;58206;47.310;19.502;2022-10-16T12:06:37;0.30;;;0.10;;
70635;SDS011;58206;47.310;19.502;2022-10-16T12:09:32;0.30;;;0.10;;
70635;SDS011;58206;47.310;19.502;2022-10-16T12:12:26;0.30;;;0.10;;
70635;SDS011;58206;47.310;19.502;2022-10-16T12:15:19;0.40;;;0.10;;
70635;SDS011;58206;47.310;19.502;2022-10-16T12:18:20;0.40;;;0.10;;
70635;SDS011;58206;47.310;19.502;2022-10-16T12:25:04;0.30;;;0.10;;
70635;SDS011;58206;47.310;19.502;2022-10-16T12:27:56;0.40;;;0.10;;
70635;SDS011;58206;47.310;19.502;2022-10-16T12:30:41;0.40;;;0.10;;
70635;SDS011;58206;47.310;19.502;2022-10-16T12:36:16;0.70;;;0.20;;
70635;SDS011;58206;47.310;19.502;2022-10-16T12:39:16;0.60;;;0.20;;
70635;SDS011;58206;47.310;19.502;2022-10-16T12:42:05;0.40;;;0.10;;
70635;SDS011;58206;47.310;19.502;2022-10-16T12:44:50;0.40;;;0.10;;
70635;SDS011;58206;47.310;19.502;2022-10-16T12:47:36;0.40;;;0.10;;
70635;SDS011;58206;47.310;19.502;2022-10-16T12:53:18;0.32;;;0.10;;
70635;SDS011;58206;47.310;19.502;2022-10-16T12:56:09;0.40;;;0.10;;
70635;SDS011;58206;47.310;19.502;2022-10-16T13:05:01;0.32;;;0.10;;
70635;SDS011;58206;47.310;19.502;2022-10-16T13:07:51;0.40;;;0.10;;
70635;SDS011;58206;47.310;19.502;2022-10-16T13:16:30;0.40;;;0.10;;
70635;SDS011;58206;47.310;19.502;2022-10-16T13:30:43;0.40;;;0.10;;
70635;SDS011;58206;47.310;19.502;2022-10-16T13:36:19;0.30;;;0.05;;
70635;SDS011;58206;47.310;19.502;2022-10-16T13:39:09;0.30;;;0.10;;
70635;SDS011;58206;47.310;19.502;2022-10-16T13:42:15;0.30;;;0.10;;
70635;SDS011;58206;47.310;19.502;2022-10-16T13:45:02;0.30;;;0.10;;
70635;SDS011;58206;47.310;19.502;2022-10-16T13:47:46;0.30;;;0.10;;
70635;SDS011;58206;47.310;19.502;2022-10-16T13:50:30;0.30;;;0.10;;
70635;SDS011;58206;47.310;19.502;2022-10-16T13:53:15;0.40;;;0.10;;
70635;SDS011;58206;47.310;19.502;2022-10-16T13:56:01;0.30;;;0.10;;
70635;SDS011;58206;47.310;19.502;2022-10-16T13:58:46;0.30;;;0.10;;
70635;SDS011;58206;47.310;19.502;2022-10-16T14:04:17;0.30;;;0.10;;
70635;SDS011;58206;47.310;19.502;2022-10-16T14:07:02;0.30;;;0.10;;
70635;SDS011;58206;47.310;19.502;2022-10-16T14:09:48;0.30;;;0.10;;
70635;SDS011;58206;47.310;19.502;2022-10-16T14:12:34;0.30;;;0.10;;
70635;SDS011;58206;47.310;19.502;2022-10-16T14:15:18;0.40;;;0.10;;
70635;SDS011;58206;47.310;19.502;2022-10-16T14:18:03;0.30;;;0.10;;
70635;SDS011;58206;47.310;19.502;2022-10-16T14:20:47;0.30;;;0.10;;
70635;SDS011;58206;47.310;19.502;2022-10-16T14:23:36;0.30;;;0.10;;
70635;SDS011;58206;47.310;19.502;2022-10-16T14:26:22;0.30;;;0.10;;
70635;SDS011;58206;47.310;19.502;2022-10-16T14:29:11;0.20;;;0.00;;
70635;SDS011;58206;47.310;19.502;2022-10-16T14:31:56;0.30;;;0.00;;
70635;SDS011;58206;47.310;19.502;2022-10-16T14:34:41;0.30;;;0.10;;
70635;SDS011;58206;47.310;19.502;2022-10-16T14:37:29;0.20;;;0.00;;
70635;SDS011;58206;47.310;19.502;2022-10-16T14:40:14;0.30;;;0.10;;
70635;SDS011;58206;47.310;19.502;2022-10-16T14:42:59;0.30;;;0.10;;
70635;SDS011;58206;47.310;19.502;2022-10-16T14:45:44;0.20;;;0.00;;
70635;SDS011;58206;47.310;19.502;2022-10-16T14:48:35;0.30;;;0.10;;
70635;SDS011;58206;47.310;19.502;2022-10-16T14:51:20;0.30;;;0.10;;
70635;SDS011;58206;47.310;19.502;2022-10-16T14:54:04;0.30;;;0.10;;
70635;SDS011;58206;47.310;19.502;2022-10-16T14:56:52;0.30;;;0.10;;
70635;SDS011;58206;47.310;19.502;2022-10-16T14:59:38;0.30;;;0.10;;
70635;SDS011;58206;47.310;19.502;2022-10-16T15:02:33;0.30;;;0.10;;
70635;SDS011;58206;47.310;19.502;2022-10-16T15:08:06;0.30;;;0.00;;
70635;SDS011;58206;47.310;19.502;2022-10-16T15:10:50;0.30;;;0.10;;
70635;SDS011;58206;47.310;19.502;2022-10-16T15:13:35;0.30;;;0.10;;
70635;SDS011;58206;47.310;19.502;2022-10-16T15:16:19;0.30;;;0.10;;
70635;SDS011;58206;47.310;19.502;2022-10-16T15:19:04;0.30;;;0.10;;
70635;SDS011;58206;47.310;19.502;2022-10-16T15:21:48;0.30;;;0.00;;
70635;SDS011;58206;47.310;19.502;2022-10-16T15:24:33;0.40;;;0.10;;
70635;SDS011;58206;47.310;19.502;2022-10-16T15:27:17;0.30;;;0.00;;
70635;SDS011;58206;47.310;19.502;2022-10-16T15:30:02;0.30;;;0.03;;
70635;SDS011;58206;47.310;19.502;2022-10-16T15:32:46;0.30;;;0.07;;
70635;SDS011;58206;47.310;19.502;2022-10-16T15:35:31;0.30;;;0.00;;
70635;SDS011;58206;47.310;19.502;2022-10-16T15:38:15;0.30;;;0.10;;
70635;SDS011;58206;47.310;19.502;2022-10-16T15:41:01;0.40;;;0.10;;
70635;SDS011;58206;47.310;19.502;2022-10-16T15:43:47;0.30;;;0.10;;
70635;SDS011;58206;47.310;19.502;2022-10-16T15:46:32;0.30;;;0.10;;
70635;SDS011;58206;47.310;19.502;2022-10-16T15:49:18;0.30;;;0.00;;
70635;SDS011;58206;47.310;19.502;2022-10-16T15:52:02;0.40;;;0.10;;
70635;SDS011;58206;47.310;19.502;2022-10-16T15:54:47;0.30;;;0.00;;
70635;SDS011;58206;47.310;19.502;2022-10-16T15:57:31;0.30;;;0.00;;
70635;SDS011;58206;47.310;19.502;2022-10-16T16:00:18;0.30;;;0.00;;
70635;SDS011;58206;47.310;19.502;2022-10-16T16:03:04;0.30;;;0.00;;
70635;SDS011;58206;47.310;19.502;2022-10-16T16:05:49;0.30;;;0.03;;
70635;SDS011;58206;47.310;19.502;2022-10-16T16:08:33;0.30;;;0.00;;
70635;SDS011;58206;47.310;19.502;2022-10-16T16:11:18;0.30;;;0.00;;
70635;SDS011;58206;47.310;19.502;2022-10-16T16:14:03;0.30;;;0.10;;
70635;SDS011;58206;47.310;19.502;2022-10-16T16:16:47;0.30;;;0.00;;
70635;SDS011;58206;47.310;19.502;2022-10-16T16:19:32;0.20;;;0.00;;
70635;SDS011;58206;47.310;19.502;2022-10-16T16:22:17;0.30;;;0.10;;
70635;SDS011;58206;47.310;19.502;2022-10-16T16:25:01;0.30;;;0.00;;
70635;SDS011;58206;47.310;19.502;2022-10-16T16:27:45;0.20;;;0.00;;
70635;SDS011;58206;47.310;19.502;2022-10-16T16:30:30;0.30;;;0.00;;
70635;SDS011;58206;47.310;19.502;2022-10-16T16:33:14;0.30;;;0.08;;
70635;SDS011;58206;47.310;19.502;2022-10-16T16:35:59;0.22;;;0.00;;
70635;SDS011;58206;47.310;19.502;2022-10-16T16:38:44;0.30;;;0.00;;
70635;SDS011;58206;47.310;19.502;2022-10-16T16:41:29;0.20;;;0.00;;
70635;SDS011;58206;47.310;19.502;2022-10-16T16:44:14;0.20;;;0.00;;
70635;SDS011;58206;47.310;19.502;2022-10-16T16:46:59;0.30;;;0.00;;
70635;SDS011;58206;47.310;19.502;2022-10-16T16:49:43;0.30;;;0.00;;
70635;SDS011;58206;47.310;19.502;2022-10-16T16:52:28;0.30;;;0.00;;
70635;SDS011;58206;47.310;19.502;2022-10-16T16:55:13;0.30;;;0.00;;
70635;SDS011;58206;47.310;19.502;2022-10-16T16:57:57;0.30;;;0.00;;
70635;SDS011;58206;47.310;19.502;2022-10-16T17:00:45;0.30;;;0.00;;
70635;SDS011;58206;47.310;19.502;2022-10-16T17:03:33;0.30;;;0.00;;
70635;SDS011;58206;47.310;19.502;2022-10-16T17:06:19;0.20;;;0.00;;
70635;SDS011;58206;47.310;19.502;2022-10-16T17:09:04;0.20;;;0.00;;
70635;SDS011;58206;47.310;19.502;2022-10-16T17:11:50;0.20;;;0.10;;
70635;SDS011;58206;47.310;19.502;2022-10-16T17:14:34;0.20;;;0.00;;
70635;SDS011;58206;47.310;19.502;2022-10-16T17:17:18;0.20;;;0.00;;
70635;SDS011;58206;47.310;19.502;2022-10-16T17:20:03;0.20;;;0.00;;
70635;SDS011;58206;47.310;19.502;2022-10-16T17:22:47;0.20;;;0.10;;
70635;SDS011;58206;47.310;19.502;2022-10-16T17:25:32;0.30;;;0.10;;
70635;SDS011;58206;47.310;19.502;2022-10-16T17:28:19;0.20;;;0.10;;
70635;SDS011;58206;47.310;19.502;2022-10-16T17:31:07;0.10;;;0.00;;
70635;SDS011;58206;47.310;19.502;2022-10-16T17:33:52;0.28;;;0.00;;
70635;SDS011;58206;47.310;19.502;2022-10-16T17:36:37;0.30;;;0.10;;
70635;SDS011;58206;47.310;19.502;2022-10-16T17:39:27;0.20;;;0.10;;
70635;SDS011;58206;47.310;19.502;2022-10-16T17:42:11;0.20;;;0.00;;
70635;SDS011;58206;47.310;19.502;2022-10-16T17:44:55;0.20;;;0.00;;
70635;SDS011;58206;47.310;19.502;2022-10-16T17:47:40;0.28;;;0.00;;
70635;SDS011;58206;47.310;19.502;2022-10-16T17:50:27;0.30;;;0.00;;
70635;SDS011;58206;47.310;19.502;2022-10-16T17:53:11;0.40;;;0.20;;
70635;SDS011;58206;47.310;19.502;2022-10-16T17:55:56;0.30;;;0.00;;
70635;SDS011;58206;47.310;19.502;2022-10-16T17:58:42;0.20;;;0.00;;
70635;SDS011;58206;47.310;19.502;2022-10-16T18:01:28;0.10;;;0.00;;
70635;SDS011;58206;47.310;19.502;2022-10-16T18:04:14;0.20;;;0.00;;
70635;SDS011;58206;47.310;19.502;2022-10-16T18:06:59;0.20;;;0.00;;
70635;SDS011;58206;47.310;19.502;2022-10-16T18:09:45;0.20;;;0.00;;
70635;SDS011;58206;47.310;19.502;2022-10-16T18:12:29;0.15;;;0.00;;
70635;SDS011;58206;47.310;19.502;2022-10-16T18:15:14;0.30;;;0.10;;
70635;SDS011;58206;47.310;19.502;2022-10-16T18:17:59;0.20;;;0.00;;
70635;SDS011;58206;47.310;19.502;2022-10-16T18:20:44;0.20;;;0.00;;
70635;SDS011;58206;47.310;19.502;2022-10-16T18:23:29;0.20;;;0.05;;
70635;SDS011;58206;47.310;19.502;2022-10-16T18:26:14;0.20;;;0.00;;
70635;SDS011;58206;47.310;19.502;2022-10-16T18:28:59;0.20;;;0.10;;
70635;SDS011;58206;47.310;19.502;2022-10-16T18:31:45;0.20;;;0.00;;
70635;SDS011;58206;47.310;19.502;2022-10-16T18:34:30;0.20;;;0.00;;
70635;SDS011;58206;47.310;19.502;2022-10-16T18:37:14;0.20;;;0.00;;
70635;SDS011;58206;47.310;19.502;2022-10-16T18:39:59;0.10;;;0.00;;